Time;durP1;ratioP1;P1;durP2;ratioP2;P2;SDS_P1;SDS_P2;PMS_P1;PMS_P2;Temp;Humidity;BMP_temperature;BMP_pressure;BME280_temperature;BME280_humidity;BME280_pressure;Samples;Min_cycle;Max_cycle;Signal;HPM_P1;HPM_P2
2023/12/08 00:00:38;;;;;;;;;;;19.80;56.90;;;;;;7322188;19;9609;-74
2023/12/08 00:03:08;;;;;;;;;;;19.80;56.90;;;;;;7318786;19;9267;-75
2023/12/08 00:05:37;;;;;;;;;;;19.90;56.90;;;;;;7322151;19;9167;-74
2023/12/08 00:08:03;;;;;;;;;;;19.90;57.00;;;;;;7321953;19;10277;-75
2023/12/08 00:10:32;;;;;;;;;;;20.00;56.90;;;;;;7320029;19;9299;-74
2023/12/08 00:13:01;;;;;;;;;;;20.00;57.00;;;;;;7321922;19;9495;-75
2023/12/08 00:15:30;;;;;;;;;;;20.00;56.90;;;;;;7322955;19;9600;-75
2023/12/08 00:18:02;;;;;;;;;;;20.00;56.90;;;;;;7322522;19;9557;-75
2023/12/08 00:20:32;;;;;;;;;;;20.10;56.90;;;;;;7321857;19;10225;-75
2023/12/08 00:23:00;;;;;;;;;;;20.10;56.70;;;;;;7321056;19;9449;-75
2023/12/08 00:25:30;;;;;;;;;;;20.20;57.40;;;;;;7322725;19;9225;-75
2023/12/08 00:27:59;;;;;;;;;;;20.20;56.60;;;;;;7323080;19;9499;-75
2023/12/08 00:30:29;;;;;;;;;;;20.20;56.60;;;;;;7322120;19;9319;-75
2023/12/08 00:32:58;;;;;;;;;;;20.30;56.60;;;;;;7321141;19;9579;-75
2023/12/08 00:35:30;;;;;;;;;;;20.30;56.50;;;;;;7321401;19;9213;-75
2023/12/08 00:37:59;;;;;;;;;;;20.30;56.50;;;;;;7319690;19;9206;-76
2023/12/08 00:40:49;;;;;;;;;;;20.30;56.40;;;;;;7319423;19;9565;-75
2023/12/08 00:43:18;;;;;;;;;;;20.20;56.40;;;;;;7321628;19;9003;-76
2023/12/08 00:45:46;;;;;;;;;;;20.20;56.30;;;;;;7321375;19;9214;-76
2023/12/08 00:48:15;;;;;;;;;;;20.20;56.20;;;;;;7321199;19;9267;-76
2023/12/08 00:50:46;;;;;;;;;;;20.20;56.30;;;;;;7320237;19;9507;-75
2023/12/08 00:53:15;;;;;;;;;;;20.20;56.20;;;;;;7319828;19;9488;-74
2023/12/08 00:55:44;;;;;;;;;;;20.10;56.20;;;;;;7320580;19;10020;-75
2023/12/08 00:58:16;;;;;;;;;;;20.10;56.20;;;;;;7319931;19;9506;-76
2023/12/08 01:00:46;;;;;;;;;;;20.00;56.20;;;;;;7320311;19;9313;-76
2023/12/08 01:03:15;;;;;;;;;;;20.00;56.20;;;;;;7320291;19;9409;-75
2023/12/08 01:05:46;;;;;;;;;;;19.90;56.20;;;;;;7320421;19;9607;-75
2023/12/08 01:08:15;;;;;;;;;;;19.90;56.30;;;;;;7320142;19;9482;-76
2023/12/08 01:10:45;;;;;;;;;;;19.80;56.30;;;;;;7318718;19;10545;-75
2023/12/08 01:13:14;;;;;;;;;;;19.80;56.40;;;;;;7316532;19;9524;-75
2023/12/08 01:15:43;;;;;;;;;;;19.70;56.50;;;;;;7321319;19;9237;-76
2023/12/08 01:18:12;;;;;;;;;;;19.70;56.60;;;;;;7319152;19;9376;-75
2023/12/08 01:20:41;;;;;;;;;;;19.60;56.60;;;;;;7319469;19;9472;-76
2023/12/08 01:23:13;;;;;;;;;;;19.60;56.70;;;;;;7320731;19;9223;-75
2023/12/08 01:25:42;;;;;;;;;;;19.50;56.70;;;;;;7318145;19;9247;-76
2023/12/08 01:28:11;;;;;;;;;;;19.50;56.80;;;;;;7320108;19;9259;-74
2023/12/08 01:30:40;;;;;;;;;;;19.40;56.80;;;;;;7316689;19;9446;-75
2023/12/08 01:33:09;;;;;;;;;;;19.40;57.00;;;;;;7317868;19;9521;-75
2023/12/08 01:35:38;;;;;;;;;;;19.30;57.00;;;;;;7319093;19;9225;-76
2023/12/08 01:38:08;;;;;;;;;;;19.30;57.10;;;;;;7319560;19;9575;-75
2023/12/08 01:40:42;;;;;;;;;;;19.30;57.10;;;;;;7318098;19;9647;-74
2023/12/08 01:43:14;;;;;;;;;;;19.30;57.20;;;;;;7318680;19;9453;-73
2023/12/08 01:45:43;;;;;;;;;;;19.30;57.20;;;;;;7320711;19;10751;-75
2023/12/08 01:48:13;;;;;;;;;;;19.20;57.10;;;;;;7319586;19;10317;-74
2023/12/08 01:50:42;;;;;;;;;;;19.20;57.20;;;;;;7318369;19;9187;-75
2023/12/08 01:53:12;;;;;;;;;;;19.30;57.10;;;;;;7323101;19;9511;-75
2023/12/08 01:55:43;;;;;;;;;;;19.30;57.10;;;;;;7319597;19;9496;-75
2023/12/08 01:58:13;;;;;;;;;;;19.30;57.10;;;;;;7317465;19;9287;-75
2023/12/08 02:00:44;;;;;;;;;;;19.30;57.00;;;;;;7319249;19;9509;-75
2023/12/08 02:03:15;;;;;;;;;;;19.30;56.90;;;;;;7318804;19;9301;-75
2023/12/08 02:05:49;;;;;;;;;;;19.30;56.90;;;;;;7318416;19;9515;-75
2023/12/08 02:08:18;;;;;;;;;;;19.40;56.90;;;;;;7317679;19;10729;-75
2023/12/08 02:10:50;;;;;;;;;;;19.40;56.80;;;;;;7317287;19;9859;-76
2023/12/08 02:13:19;;;;;;;;;;;19.30;56.70;;;;;;7317820;19;9458;-75
2023/12/08 02:15:51;;;;;;;;;;;19.40;56.70;;;;;;7318079;19;9445;-75
2023/12/08 02:18:20;;;;;;;;;;;19.50;57.00;;;;;;7317180;19;9242;-75
2023/12/08 02:20:49;;;;;;;;;;;19.50;56.80;;;;;;7317762;19;9189;-75
2023/12/08 02:23:18;;;;;;;;;;;19.50;56.70;;;;;;7319650;19;9164;-75
2023/12/08 02:25:50;;;;;;;;;;;19.60;56.70;;;;;;7318374;19;9230;-74
2023/12/08 02:28:19;;;;;;;;;;;19.70;56.70;;;;;;7317347;19;9483;-75
2023/12/08 02:30:49;;;;;;;;;;;19.70;57.40;;;;;;7317770;19;9360;-76
2023/12/08 02:33:41;;;;;;;;;;;19.80;56.60;;;;;;7315077;19;10394;-75
2023/12/08 02:36:12;;;;;;;;;;;19.90;56.60;;;;;;7317688;19;9478;-75
2023/12/08 02:38:42;;;;;;;;;;;19.90;56.50;;;;;;7317887;19;9590;-76
2023/12/08 02:41:14;;;;;;;;;;;19.90;56.40;;;;;;7316009;19;9446;-75
2023/12/08 02:43:43;;;;;;;;;;;20.00;56.30;;;;;;7317026;19;9401;-76
2023/12/08 02:46:12;;;;;;;;;;;20.10;56.30;;;;;;7316909;19;9167;-76
2023/12/08 02:48:41;;;;;;;;;;;20.10;56.20;;;;;;7317092;19;9278;-75
2023/12/08 02:51:11;;;;;;;;;;;20.20;56.20;;;;;;7317326;19;9316;-75
2023/12/08 02:53:40;;;;;;;;;;;20.20;56.10;;;;;;7316908;19;9462;-75
2023/12/08 02:56:10;;;;;;;;;;;20.20;56.00;;;;;;7316370;19;9123;-75
2023/12/08 02:58:42;;;;;;;;;;;20.30;56.10;;;;;;7317436;19;10213;-75
2023/12/08 03:01:11;;;;;;;;;;;20.30;56.00;;;;;;7316392;19;9423;-75
2023/12/08 03:03:40;;;;;;;;;;;20.20;56.00;;;;;;7317502;19;9565;-75
2023/12/08 03:06:09;;;;;;;;;;;20.20;56.00;;;;;;7316375;19;9307;-75
2023/12/08 03:08:39;;;;;;;;;;;20.20;55.90;;;;;;7320611;19;10556;-74
2023/12/08 03:11:07;;;;;;;;;;;20.20;55.90;;;;;;7319003;19;10692;-75
2023/12/08 03:13:36;;;;;;;;;;;20.20;55.80;;;;;;7323317;19;9127;-75
2023/12/08 03:16:09;;;;;;;;;;;20.20;55.80;;;;;;7323138;19;10082;-75
2023/12/08 03:18:38;;;;;;;;;;;20.10;55.70;;;;;;7322422;19;10918;-75
2023/12/08 03:21:08;;;;;;;;;;;20.10;55.70;;;;;;7322888;19;9414;-76
2023/12/08 03:23:37;;;;;;;;;;;20.10;56.30;;;;;;7323569;19;9296;-76
2023/12/08 03:26:07;;;;;;;;;;;20.00;55.80;;;;;;7323423;19;9220;-76
2023/12/08 03:28:36;;;;;;;;;;;20.00;55.70;;;;;;7321303;19;9469;-76
2023/12/08 03:31:04;;;;;;;;;;;19.90;55.80;;;;;;7322806;19;10319;-77
2023/12/08 03:33:36;;;;;;;;;;;19.80;55.80;;;;;;7320827;19;9557;-77
2023/12/08 03:36:07;;;;;;;;;;;19.80;55.90;;;;;;7323717;19;10567;-76
2023/12/08 03:38:35;;;;;;;;;;;19.80;56.00;;;;;;7322439;19;9469;-76
2023/12/08 03:41:24;;;;;;;;;;;19.70;56.00;;;;;;7321398;19;9557;-76
2023/12/08 03:43:54;;;;;;;;;;;19.70;56.80;;;;;;7322778;19;9571;-76
2023/12/08 03:46:23;;;;;;;;;;;19.60;56.20;;;;;;7322841;19;10627;-76
2023/12/08 03:48:55;;;;;;;;;;;19.60;56.30;;;;;;7320617;19;9587;-76
2023/12/08 03:51:24;;;;;;;;;;;19.50;56.30;;;;;;7321319;19;9509;-76
2023/12/08 03:53:53;;;;;;;;;;;19.50;56.40;;;;;;7320404;19;9291;-75
2023/12/08 03:56:22;;;;;;;;;;;19.40;56.40;;;;;;7321694;19;10273;-75
2023/12/08 03:58:51;;;;;;;;;;;19.40;56.50;;;;;;7322422;19;9469;-75
2023/12/08 04:01:20;;;;;;;;;;;19.30;56.50;;;;;;7321836;19;11359;-76
2023/12/08 04:04:12;;;;;;;;;;;19.30;56.60;;;;;;7320673;19;9285;-76
2023/12/08 04:06:41;;;;;;;;;;;19.30;56.60;;;;;;7321448;19;10027;-75
2023/12/08 04:09:11;;;;;;;;;;;19.30;56.70;;;;;;7318713;19;10788;-75
2023/12/08 04:11:39;;;;;;;;;;;19.20;56.70;;;;;;7322358;19;9238;-75
2023/12/08 04:14:06;;;;;;;;;;;19.20;56.70;;;;;;7323080;19;9282;-75
2023/12/08 04:16:35;;;;;;;;;;;19.20;56.70;;;;;;7322112;19;9543;-75
2023/12/08 04:19:04;;;;;;;;;;;19.30;56.70;;;;;;7322323;19;10685;-75
2023/12/08 04:21:35;;;;;;;;;;;19.30;56.70;;;;;;7323523;19;9432;-75
2023/12/08 04:24:04;;;;;;;;;;;19.30;56.60;;;;;;7321371;19;9458;-75
2023/12/08 04:26:33;;;;;;;;;;;19.30;56.60;;;;;;7321856;19;9259;-74
2023/12/08 04:29:02;;;;;;;;;;;19.40;56.60;;;;;;7320815;19;9433;-74
2023/12/08 04:31:31;;;;;;;;;;;19.40;56.40;;;;;;7319070;19;9276;-74
2023/12/08 04:34:00;;;;;;;;;;;19.40;56.30;;;;;;7319781;19;9438;-74
2023/12/08 04:36:29;;;;;;;;;;;19.40;56.30;;;;;;7320642;19;9452;-75
2023/12/08 04:39:00;;;;;;;;;;;19.40;56.40;;;;;;7322216;19;9154;-74
2023/12/08 04:41:29;;;;;;;;;;;19.40;56.30;;;;;;7320751;19;9284;-75
2023/12/08 04:43:58;;;;;;;;;;;19.50;56.40;;;;;;7322494;19;9498;-74
2023/12/08 04:46:27;;;;;;;;;;;19.50;56.50;;;;;;7320310;19;9384;-74
2023/12/08 04:48:57;;;;;;;;;;;19.60;56.40;;;;;;7321183;19;9470;-74
2023/12/08 04:51:26;;;;;;;;;;;19.60;56.30;;;;;;7320347;19;11198;-75
2023/12/08 04:53:55;;;;;;;;;;;19.70;56.30;;;;;;7322606;19;9543;-74
2023/12/08 04:56:26;;;;;;;;;;;19.70;56.20;;;;;;7320900;19;9147;-75
2023/12/08 04:58:55;;;;;;;;;;;19.80;56.20;;;;;;7321411;19;9313;-75
2023/12/08 05:01:24;;;;;;;;;;;19.80;56.20;;;;;;7320774;19;9494;-75
2023/12/08 05:03:54;;;;;;;;;;;19.90;56.10;;;;;;7321803;19;9535;-75
2023/12/08 05:06:26;;;;;;;;;;;19.90;56.00;;;;;;7320210;19;9463;-75
2023/12/08 05:08:55;;;;;;;;;;;20.00;56.00;;;;;;7319298;19;9506;-75
2023/12/08 05:11:27;;;;;;;;;;;20.10;56.00;;;;;;7321486;19;9288;-75
2023/12/08 05:13:56;;;;;;;;;;;20.10;55.90;;;;;;7320653;19;9761;-75
2023/12/08 05:16:25;;;;;;;;;;;20.20;55.90;;;;;;7320353;19;9466;-76
2023/12/08 05:18:53;;;;;;;;;;;20.20;55.80;;;;;;7321074;19;9676;-76
2023/12/08 05:21:22;;;;;;;;;;;20.20;55.70;;;;;;7321306;19;9454;-77
2023/12/08 05:23:51;;;;;;;;;;;20.30;55.70;;;;;;7321135;19;9971;-77
2023/12/08 05:26:20;;;;;;;;;;;20.30;55.60;;;;;;7320569;19;9442;-77
2023/12/08 05:28:52;;;;;;;;;;;20.30;55.60;;;;;;7317795;19;9476;-77
2023/12/08 05:31:21;;;;;;;;;;;20.30;55.60;;;;;;7320683;19;9453;-77
2023/12/08 05:33:50;;;;;;;;;;;20.30;55.60;;;;;;7318337;19;9404;-77
2023/12/08 05:36:19;;;;;;;;;;;20.30;55.50;;;;;;7327274;19;9432;-77
2023/12/08 05:38:48;;;;;;;;;;;20.30;55.60;;;;;;7320367;19;9637;-78
2023/12/08 05:41:17;;;;;;;;;;;20.20;55.40;;;;;;7319556;19;9460;-78
2023/12/08 05:43:46;;;;;;;;;;;20.20;55.40;;;;;;7320235;19;9392;-78
2023/12/08 05:46:17;;;;;;;;;;;20.20;55.40;;;;;;7319336;19;9531;-79
2023/12/08 05:48:46;;;;;;;;;;;20.10;55.30;;;;;;7319713;19;9438;-79
2023/12/08 05:51:16;;;;;;;;;;;20.10;55.40;;;;;;7319874;19;9491;-79
2023/12/08 05:53:45;;;;;;;;;;;20.10;55.40;;;;;;7320609;19;9531;-79
2023/12/08 05:56:34;;;;;;;;;;;20.00;55.30;;;;;;7317929;19;9402;-79
2023/12/08 05:59:03;;;;;;;;;;;20.00;55.40;;;;;;7316202;19;9583;-79
2023/12/08 06:01:35;;;;;;;;;;;19.90;55.40;;;;;;7318135;19;9297;-79
2023/12/08 06:04:24;;;;;;;;;;;19.90;55.50;;;;;;7317624;19;9268;-79
2023/12/08 06:06:53;;;;;;;;;;;19.80;55.60;;;;;;7319394;19;9226;-79
2023/12/08 06:09:23;;;;;;;;;;;19.70;55.60;;;;;;7319395;19;9441;-78
2023/12/08 06:11:52;;;;;;;;;;;19.70;55.70;;;;;;7317377;19;9465;-79
2023/12/08 06:14:21;;;;;;;;;;;19.70;55.80;;;;;;7320120;19;9305;-79
2023/12/08 06:16:52;;;;;;;;;;;19.60;55.90;;;;;;7317817;19;9750;-77
2023/12/08 06:19:21;;;;;;;;;;;19.60;56.00;;;;;;7317972;19;9246;-78
2023/12/08 06:21:50;;;;;;;;;;;19.50;56.60;;;;;;7318285;19;9457;-78
2023/12/08 06:24:19;;;;;;;;;;;19.40;56.00;;;;;;7319987;19;9636;-78
2023/12/08 06:26:48;;;;;;;;;;;19.40;56.10;;;;;;7317932;19;9455;-78
2023/12/08 06:29:17;;;;;;;;;;;19.40;56.20;;;;;;7319049;19;9233;-79
2023/12/08 06:31:46;;;;;;;;;;;19.30;56.30;;;;;;7318314;19;9489;-78
2023/12/08 06:34:38;;;;;;;;;;;19.30;56.30;;;;;;7317765;19;9309;-78
2023/12/08 06:37:07;;;;;;;;;;;19.30;56.50;;;;;;7318598;19;9593;-79
2023/12/08 06:39:36;;;;;;;;;;;19.20;56.40;;;;;;7319001;19;9347;-78
2023/12/08 06:42:06;;;;;;;;;;;19.30;56.50;;;;;;7318029;19;9473;-79
2023/12/08 06:44:35;;;;;;;;;;;19.20;56.40;;;;;;7316665;19;9222;-79
2023/12/08 06:47:04;;;;;;;;;;;19.20;56.30;;;;;;7326402;19;9463;-79
2023/12/08 06:49:32;;;;;;;;;;;19.30;56.40;;;;;;7330164;19;9676;-79
2023/12/08 06:52:05;;;;;;;;;;;19.30;56.30;;;;;;7326011;19;9469;-79
2023/12/08 06:54:34;;;;;;;;;;;19.30;56.20;;;;;;7324931;19;9442;-79
2023/12/08 06:57:03;;;;;;;;;;;19.30;56.20;;;;;;7324859;19;9253;-78
2023/12/08 06:59:32;;;;;;;;;;;19.40;56.20;;;;;;7325104;19;9232;-77
2023/12/08 07:02:01;;;;;;;;;;;19.40;56.10;;;;;;7323410;19;9481;-79
2023/12/08 07:04:30;;;;;;;;;;;19.40;56.10;;;;;;7321557;19;9462;-73
2023/12/08 07:06:59;;;;;;;;;;;19.40;56.10;;;;;;7320902;19;9532;-77
2023/12/08 07:09:30;;;;;;;;;;;19.40;56.00;;;;;;7323214;19;9613;-76
2023/12/08 07:11:59;;;;;;;;;;;19.50;56.20;;;;;;7325309;19;9682;-77
2023/12/08 07:14:28;;;;;;;;;;;19.50;56.30;;;;;;7324527;19;9425;-78
2023/12/08 07:16:57;;;;;;;;;;;19.60;56.40;;;;;;7323034;19;9150;-77
2023/12/08 07:19:46;;;;;;;;;;;19.70;56.30;;;;;;7323654;19;9226;-77
2023/12/08 07:22:15;;;;;;;;;;;19.70;56.20;;;;;;7319621;19;9262;-78
2023/12/08 07:24:46;;;;;;;;;;;19.80;56.20;;;;;;7317400;19;9463;-78
2023/12/08 07:27:15;;;;;;;;;;;19.80;56.10;;;;;;7320214;19;9305;-78
2023/12/08 07:29:44;;;;;;;;;;;19.90;56.00;;;;;;7323478;19;9643;-77
2023/12/08 07:32:13;;;;;;;;;;;19.90;56.00;;;;;;7323292;19;9940;-78
2023/12/08 07:34:42;;;;;;;;;;;20.00;55.90;;;;;;7322519;19;9436;-78
2023/12/08 07:37:11;;;;;;;;;;;20.10;55.90;;;;;;7323465;19;9526;-78
2023/12/08 07:39:39;;;;;;;;;;;20.10;55.80;;;;;;7321964;19;9593;-78
2023/12/08 07:42:11;;;;;;;;;;;20.20;55.80;;;;;;7323889;19;9516;-78
2023/12/08 07:44:40;;;;;;;;;;;20.20;55.70;;;;;;7318687;19;9419;-78
2023/12/08 07:47:10;;;;;;;;;;;20.10;55.50;;;;;;7323283;19;9477;-79
2023/12/08 07:49:40;;;;;;;;;;;20.20;55.70;;;;;;7323203;19;9509;-79
2023/12/08 07:52:10;;;;;;;;;;;20.10;55.60;;;;;;7323676;19;9441;-79
2023/12/08 07:54:40;;;;;;;;;;;20.10;55.60;;;;;;7322544;19;9290;-79
2023/12/08 07:57:12;;;;;;;;;;;20.10;55.70;;;;;;7319656;19;9718;-80
2023/12/08 07:59:41;;;;;;;;;;;20.10;55.60;;;;;;7322067;19;9634;-80
2023/12/08 08:02:10;;;;;;;;;;;20.20;55.60;;;;;;7323563;19;12010;-80
2023/12/08 08:04:39;;;;;;;;;;;20.20;55.70;;;;;;7323347;19;9454;-80
2023/12/08 08:07:08;;;;;;;;;;;20.20;55.50;;;;;;7320664;19;9463;-79
2023/12/08 08:09:37;;;;;;;;;;;20.10;55.40;;;;;;7321234;19;9481;-79
2023/12/08 08:12:06;;;;;;;;;;;20.10;55.40;;;;;;7320934;19;9449;-79
2023/12/08 08:14:38;;;;;;;;;;;20.10;55.50;;;;;;7322333;19;9451;-79
2023/12/08 08:17:07;;;;;;;;;;;20.10;55.50;;;;;;7319318;19;9450;-80
2023/12/08 08:19:36;;;;;;;;;;;20.00;55.30;;;;;;7322480;19;9653;-80
2023/12/08 08:22:05;;;;;;;;;;;20.00;55.30;;;;;;7321045;19;9255;-81
2023/12/08 08:24:34;;;;;;;;;;;20.00;55.40;;;;;;7322248;19;9457;-80
2023/12/08 08:27:04;;;;;;;;;;;19.90;55.40;;;;;;7321964;19;9230;-80
2023/12/08 08:33:03;;;;;;;;;;;19.80;55.40;;;;;;7314833;19;9258;-80
2023/12/08 08:35:32;;;;;;;;;;;19.80;55.50;;;;;;7322560;19;9422;-80
2023/12/08 08:38:00;;;;;;;;;;;19.70;55.60;;;;;;7322234;19;9240;-80
2023/12/08 08:40:31;;;;;;;;;;;19.70;55.70;;;;;;7321111;19;9549;-80
2023/12/08 08:43:00;;;;;;;;;;;19.70;55.70;;;;;;7321709;19;9130;-80
2023/12/08 08:45:29;;;;;;;;;;;19.60;55.80;;;;;;7320042;19;9229;-80
2023/12/08 08:47:58;;;;;;;;;;;19.50;55.90;;;;;;7319524;19;9576;-80
2023/12/08 08:50:29;;;;;;;;;;;19.50;55.90;;;;;;7317711;19;9538;-80
2023/12/08 08:53:00;;;;;;;;;;;19.50;56.00;;;;;;7321212;19;9362;-80
2023/12/08 08:55:29;;;;;;;;;;;19.40;56.00;;;;;;7320774;19;9516;-80
2023/12/08 08:58:18;;;;;;;;;;;19.40;56.10;;;;;;7316882;19;9577;-80
2023/12/08 09:00:47;;;;;;;;;;;19.30;56.10;;;;;;7319932;19;9469;-79
2023/12/08 09:03:17;;;;;;;;;;;19.30;56.20;;;;;;7317997;19;9628;-79
2023/12/08 09:05:48;;;;;;;;;;;19.30;56.30;;;;;;7319070;19;9705;-80
2023/12/08 09:08:18;;;;;;;;;;;19.30;56.30;;;;;;7317950;19;9222;-79
2023/12/08 09:10:47;;;;;;;;;;;19.30;56.40;;;;;;7319297;19;9459;-80
2023/12/08 09:13:16;;;;;;;;;;;19.20;56.30;;;;;;7317862;19;9233;-79
2023/12/08 09:15:45;;;;;;;;;;;19.30;56.30;;;;;;7321876;19;9367;-79
2023/12/08 09:18:14;;;;;;;;;;;19.30;56.30;;;;;;7326447;19;9446;-80
2023/12/08 09:20:44;;;;;;;;;;;19.20;56.20;;;;;;7318405;19;9429;-80
2023/12/08 09:23:16;;;;;;;;;;;19.30;56.10;;;;;;7319284;19;9657;-80
2023/12/08 09:25:45;;;;;;;;;;;19.40;56.10;;;;;;7320246;19;9254;-80
2023/12/08 09:28:14;;;;;;;;;;;19.40;56.20;;;;;;7319722;19;9501;-80
2023/12/08 09:30:44;;;;;;;;;;;19.50;56.40;;;;;;7319301;19;9677;-80
2023/12/08 09:33:33;;;;;;;;;;;19.50;56.10;;;;;;7316250;19;9278;-80
2023/12/08 09:36:05;;;;;;;;;;;19.50;56.20;;;;;;7319813;19;9409;-80
2023/12/08 09:38:37;;;;;;;;;;;19.70;56.10;;;;;;7317645;19;10887;-79
2023/12/08 09:41:07;;;;;;;;;;;19.70;56.70;;;;;;7319453;19;9255;-79
2023/12/08 09:43:44;;;;;;;;;;;19.80;55.90;;;;;;7318855;19;10705;-80
2023/12/08 09:46:14;;;;;;;;;;;19.80;55.80;;;;;;7319767;19;9322;-79
2023/12/08 09:48:47;;;;;;;;;;;19.80;55.70;;;;;;7317689;19;9444;-80
2023/12/08 09:51:17;;;;;;;;;;;19.80;55.60;;;;;;7318392;19;9388;-80
2023/12/08 09:53:52;;;;;;;;;;;19.80;55.60;;;;;;7318505;19;9584;-80
2023/12/08 09:56:21;;;;;;;;;;;19.90;55.70;;;;;;7317825;19;9237;-79
2023/12/08 09:58:51;;;;;;;;;;;19.90;55.60;;;;;;7317679;19;9334;-80
2023/12/08 10:01:21;;;;;;;;;;;19.90;55.70;;;;;;7318020;19;9300;-79
2023/12/08 10:03:50;;;;;;;;;;;20.00;55.60;;;;;;7318702;19;9284;-79
2023/12/08 10:06:20;;;;;;;;;;;20.00;55.60;;;;;;7318706;19;9283;-79
2023/12/08 10:08:52;;;;;;;;;;;20.00;55.50;;;;;;7318172;19;9428;-80
2023/12/08 10:11:22;;;;;;;;;;;20.10;55.50;;;;;;7314983;19;10661;-80
2023/12/08 10:13:52;;;;;;;;;;;20.20;55.50;;;;;;7318523;19;9525;-79
2023/12/08 10:16:21;;;;;;;;;;;20.20;55.50;;;;;;7319582;19;9468;-79
2023/12/08 10:18:51;;;;;;;;;;;20.20;55.40;;;;;;7319108;19;9178;-79
2023/12/08 10:21:40;;;;;;;;;;;20.30;55.40;;;;;;7320942;19;9339;-80
2023/12/08 10:24:12;;;;;;;;;;;20.30;55.30;;;;;;7323810;19;9391;-79
2023/12/08 10:26:41;;;;;;;;;;;20.30;55.30;;;;;;7324547;19;9219;-79
2023/12/08 10:29:13;;;;;;;;;;;20.30;55.20;;;;;;7324915;19;9163;-78
2023/12/08 10:31:43;;;;;;;;;;;20.30;55.30;;;;;;7322636;19;9015;-79
2023/12/08 10:34:12;;;;;;;;;;;20.20;55.20;;;;;;7324529;19;9278;-79
2023/12/08 10:36:42;;;;;;;;;;;20.20;55.20;;;;;;7323006;19;11658;-79
2023/12/08 10:39:13;;;;;;;;;;;20.20;55.20;;;;;;7323169;19;9430;-79
2023/12/08 10:41:43;;;;;;;;;;;20.20;55.20;;;;;;7321395;19;9513;-78
2023/12/08 10:44:13;;;;;;;;;;;20.20;55.20;;;;;;7324873;19;9193;-79
2023/12/08 10:46:42;;;;;;;;;;;20.10;55.10;;;;;;7324535;19;9451;-79
2023/12/08 10:49:13;;;;;;;;;;;20.10;54.90;;;;;;7320507;19;9145;-79
2023/12/08 10:51:46;;;;;;;;;;;20.10;55.10;;;;;;7323299;19;9477;-80
2023/12/08 10:54:20;;;;;;;;;;;20.00;55.00;;;;;;7324199;19;10617;-79
2023/12/08 10:56:50;;;;;;;;;;;20.00;55.10;;;;;;7324494;19;9214;-79
2023/12/08 10:59:23;;;;;;;;;;;19.90;55.10;;;;;;7324799;19;9504;-79
2023/12/08 11:01:57;;;;;;;;;;;19.90;55.20;;;;;;7324955;19;9522;-79
2023/12/08 11:04:31;;;;;;;;;;;19.90;55.30;;;;;;7322477;19;9185;-79
2023/12/08 11:07:05;;;;;;;;;;;19.80;55.30;;;;;;7325148;19;10315;-79
2023/12/08 11:09:40;;;;;;;;;;;19.70;55.30;;;;;;7323155;19;9301;-79
2023/12/08 11:12:12;;;;;;;;;;;19.70;55.50;;;;;;7325691;19;9470;-72
2023/12/08 11:15:18;;;;;;;;;;;19.60;55.00;;;;;;7338442;19;10153;-65
2023/12/08 11:17:58;;;;;;;;;;;19.60;55.80;;;;;;7342193;19;9722;-64
2023/12/08 11:20:28;;;;;;;;;;;19.60;56.50;;;;;;7342537;19;9339;-65
2023/12/08 11:22:58;;;;;;;;;;;19.50;55.90;;;;;;7343133;19;10414;-64
2023/12/08 11:25:34;;;;;;;;;;;19.50;55.90;;;;;;7343039;19;11330;-64
2023/12/08 11:28:14;;;;;;;;;;;19.40;56.00;;;;;;7344289;19;9433;-64
2023/12/08 11:30:56;;;;;;;;;;;19.40;56.10;;;;;;7342866;19;10286;-64
2023/12/08 11:33:33;;;;;;;;;;;19.30;56.00;;;;;;7341655;19;9477;-65
2023/12/08 11:36:09;;;;;;;;;;;19.30;56.10;;;;;;7343116;19;9228;-64
2023/12/08 11:38:40;;;;;;;;;;;19.30;56.10;;;;;;7340716;19;9273;-64
2023/12/08 11:41:18;;;;;;;;;;;19.30;56.20;;;;;;7343081;19;9522;-64
2023/12/08 11:43:48;;;;;;;;;;;19.20;56.20;;;;;;7342444;19;9473;-64
2023/12/08 11:46:19;;;;;;;;;;;19.20;56.20;;;;;;7340223;19;10312;-64
2023/12/08 11:48:54;;;;;;;;;;;19.20;56.20;;;;;;7341311;19;9474;-64
2023/12/08 11:51:26;;;;;;;;;;;19.20;56.20;;;;;;7340770;19;9691;-65
2023/12/08 11:53:57;;;;;;;;;;;19.30;56.20;;;;;;7341465;19;10460;-64
2023/12/08 11:56:41;;;;;;;;;;;19.30;56.10;;;;;;7342327;19;9497;-64
2023/12/08 11:59:11;;;;;;;;;;;19.30;56.00;;;;;;7342107;19;9464;-64
2023/12/08 12:01:44;;;;;;;;;;;19.40;56.00;;;;;;7339619;19;9428;-65
2023/12/08 12:04:13;;;;;;;;;;;19.40;56.20;;;;;;7340160;19;9446;-65
2023/12/08 12:06:45;;;;;;;;;;;19.50;56.00;;;;;;7342541;19;9492;-64
2023/12/08 12:09:18;;;;;;;;;;;19.50;56.00;;;;;;7343192;19;9244;-64
2023/12/08 12:11:50;;;;;;;;;;;19.60;55.90;;;;;;7343396;19;9180;-65
2023/12/08 12:14:35;;;;;;;;;;;19.70;55.80;;;;;;7339984;19;9256;-65
2023/12/08 12:17:07;;;;;;;;;;;19.70;55.80;;;;;;7336706;19;9131;-64
2023/12/08 12:19:37;;;;;;;;;;;19.70;55.70;;;;;;7340652;19;13218;-65
2023/12/08 12:22:07;;;;;;;;;;;19.80;55.70;;;;;;7340147;19;9605;-65
2023/12/08 12:24:37;;;;;;;;;;;19.70;55.40;;;;;;7334078;19;10847;-65
2023/12/08 12:27:06;;;;;;;;;;;19.80;55.70;;;;;;7289516;19;10068;-64
2023/12/08 12:29:35;;;;;;;;;;;19.80;55.70;;;;;;7298591;19;9738;-64
2023/12/08 12:32:08;;;;;;;;;;;19.80;55.70;;;;;;7299834;19;9442;-64
2023/12/08 12:34:38;;;;;;;;;;;19.90;55.80;;;;;;7303732;19;9538;-64
2023/12/08 12:37:07;;;;;;;;;;;19.90;55.80;;;;;;7302809;19;9309;-65
2023/12/08 12:39:37;;;;;;;;;;;19.90;55.70;;;;;;7305272;19;13277;-66
2023/12/08 12:42:07;;;;;;;;;;;20.00;55.70;;;;;;7298241;19;9523;-64
2023/12/08 12:44:43;;;;;;;;;;;20.00;55.70;;;;;;7307461;19;9461;-70
2023/12/08 12:47:17;;;;;;;;;;;20.10;55.70;;;;;;7309254;19;9322;-68
2023/12/08 12:50:05;;;;;;;;;;;20.20;55.70;;;;;;7308678;19;9245;-61
2023/12/08 12:52:38;;;;;;;;;;;20.20;55.60;;;;;;7307599;19;9250;-62
2023/12/08 12:55:26;;;;;;;;;;;20.20;55.60;;;;;;7305755;19;9475;-60
2023/12/08 12:57:55;;;;;;;;;;;20.30;55.60;;;;;;7291892;19;9473;-63
2023/12/08 13:00:35;;;;;;;;;;;20.30;55.60;;;;;;7301814;19;9458;-61
2023/12/08 13:03:15;;;;;;;;;;;20.30;55.70;;;;;;7302381;19;9485;-61
2023/12/08 13:05:48;;;;;;;;;;;20.30;55.70;;;;;;7301818;19;9510;-64
2023/12/08 13:08:19;;;;;;;;;;;20.30;55.70;;;;;;7302030;19;9516;-61
2023/12/08 13:10:48;;;;;;;;;;;20.30;55.80;;;;;;7299452;19;9288;-62
2023/12/08 13:13:18;;;;;;;;;;;20.20;55.80;;;;;;7303004;19;9576;-64
2023/12/08 13:15:47;;;;;;;;;;;20.20;55.80;;;;;;7299318;19;9461;-66
2023/12/08 13:18:19;;;;;;;;;;;20.20;55.80;;;;;;7302528;19;9512;-65
2023/12/08 13:20:49;;;;;;;;;;;20.10;55.80;;;;;;7309025;19;9143;-65
2023/12/08 13:23:17;;;;;;;;;;;20.20;55.90;;;;;;7305758;19;9281;-63
2023/12/08 13:25:46;;;;;;;;;;;20.10;55.80;;;;;;7299415;19;9601;-66
2023/12/08 13:28:15;;;;;;;;;;;20.10;56.00;;;;;;7295097;19;9517;-70
2023/12/08 13:30:44;;;;;;;;;;;20.10;56.10;;;;;;7302501;19;10699;-60
2023/12/08 13:33:13;;;;;;;;;;;20.00;56.10;;;;;;7306336;19;9510;-64
2023/12/08 13:35:45;;;;;;;;;;;20.00;56.90;;;;;;7301078;19;10917;-59
2023/12/08 13:38:14;;;;;;;;;;;19.90;56.20;;;;;;7296320;19;9473;-58
2023/12/08 13:40:43;;;;;;;;;;;19.90;56.30;;;;;;7296440;19;9581;-64
2023/12/08 13:43:12;;;;;;;;;;;19.90;56.50;;;;;;7302157;19;9775;-60
2023/12/08 13:45:42;;;;;;;;;;;19.80;56.40;;;;;;7303053;19;9040;-63
2023/12/08 13:48:11;;;;;;;;;;;19.80;56.60;;;;;;7301130;19;9131;-61
2023/12/08 13:50:40;;;;;;;;;;;19.70;56.70;;;;;;7310603;19;9253;-62
2023/12/08 13:53:12;;;;;;;;;;;19.70;57.00;;;;;;7310321;19;10652;-58
2023/12/08 13:55:41;;;;;;;;;;;19.70;57.00;;;;;;7306920;19;9505;-57
2023/12/08 13:58:10;;;;;;;;;;;19.60;57.00;;;;;;7318073;19;9229;-58
2023/12/08 14:00:39;;;;;;;;;;;19.60;57.10;;;;;;7322388;19;10785;-58
2023/12/08 14:03:08;;;;;;;;;;;19.50;57.10;;;;;;7322290;19;9619;-59
2023/12/08 14:05:37;;;;;;;;;;;19.50;57.20;;;;;;7325729;19;9378;-59
2023/12/08 14:08:08;;;;;;;;;;;19.50;57.30;;;;;;7325115;19;9523;-59
2023/12/08 14:10:39;;;;;;;;;;;19.40;57.40;;;;;;7324723;19;9488;-61
2023/12/08 14:13:08;;;;;;;;;;;19.40;57.50;;;;;;7325441;19;9442;-71
2023/12/08 14:15:37;;;;;;;;;;;19.30;57.70;;;;;;7322950;19;9640;-62
2023/12/08 14:18:06;;;;;;;;;;;19.30;57.70;;;;;;7326008;19;9482;-61
2023/12/08 14:20:36;;;;;;;;;;;19.30;57.70;;;;;;7323875;19;9279;-62
2023/12/08 14:23:05;;;;;;;;;;;19.30;57.70;;;;;;7325563;19;9217;-62
2023/12/08 14:25:34;;;;;;;;;;;19.20;57.70;;;;;;7324407;19;9305;-62
2023/12/08 14:28:06;;;;;;;;;;;19.20;57.70;;;;;;7325098;19;9489;-62
2023/12/08 14:30:35;;;;;;;;;;;19.20;57.80;;;;;;7324260;19;10384;-61
2023/12/08 14:33:07;;;;;;;;;;;19.20;58.10;;;;;;7325614;19;9518;-63
2023/12/08 14:35:37;;;;;;;;;;;19.10;59.10;;;;;;7322438;19;9221;-62
2023/12/08 14:38:06;;;;;;;;;;;19.10;59.50;;;;;;7321979;19;9208;-62
2023/12/08 14:40:35;;;;;;;;;;;19.00;59.50;;;;;;7322747;19;9393;-66
2023/12/08 14:43:06;;;;;;;;;;;19.00;60.30;;;;;;7320107;19;9203;-61
2023/12/08 14:45:35;;;;;;;;;;;18.90;60.40;;;;;;7324590;19;9543;-61
2023/12/08 14:48:05;;;;;;;;;;;18.90;60.10;;;;;;7323223;19;9241;-61
2023/12/08 14:50:34;;;;;;;;;;;18.90;60.40;;;;;;7324767;19;10834;-61
2023/12/08 14:53:04;;;;;;;;;;;18.80;60.90;;;;;;7324388;19;9233;-61